createdAt,value
2022-11-09T00:00:07.988Z,194.23
2022-11-09T00:01:11.039Z,212.70
2022-11-09T00:02:14.713Z,111.32
2022-11-09T00:03:17.838Z,110.53
2022-11-09T00:04:24.476Z,102.05
2022-11-09T00:05:29.795Z,153.55
2022-11-09T00:06:34.457Z,200.43
2022-11-09T00:07:38.476Z,111.03
2022-11-09T00:08:43.575Z,226.23
2022-11-09T00:09:46.486Z,271.20
2022-11-09T00:10:50.355Z,144.27
2022-11-09T00:11:54.685Z,163.40
2022-11-09T00:13:02.241Z,188.25
2022-11-09T00:14:05.885Z,344.77
2022-11-09T00:15:11.827Z,158.45
2022-11-09T00:16:20.736Z,160.25
2022-11-09T00:17:24.406Z,124.20
2022-11-09T00:18:27.054Z,178.50
2022-11-09T00:19:31.213Z,201.20
2022-11-09T00:20:33.943Z,123.57
2022-11-09T00:21:37.634Z,121.35
2022-11-09T00:22:40.532Z,120.97
2022-11-09T00:23:45.333Z,98.85
2022-11-09T00:24:48.035Z,114.65
2022-11-09T00:25:52.132Z,116.97
2022-11-09T00:26:56.195Z,125.45
2022-11-09T00:28:01.504Z,95.63
2022-11-09T00:29:05.302Z,102.07
2022-11-09T00:30:12.514Z,100.53
2022-11-09T00:31:17.815Z,117.70
2022-11-09T00:32:26.616Z,104.70
2022-11-09T00:33:31.734Z,87.85
2022-11-09T00:34:35.172Z,95.82
2022-11-09T00:35:40.236Z,93.35
2022-11-09T00:36:50.398Z,88.28
2022-11-09T00:37:54.666Z,83.70
2022-11-09T00:39:04.116Z,78.28
2022-11-09T00:40:11.088Z,83.15
2022-11-09T00:41:14.823Z,90.50
2022-11-09T00:42:19.533Z,74.53
2022-11-09T00:43:24.775Z,79.57
2022-11-09T00:44:27.392Z,70.28
2022-11-09T00:45:31.972Z,89.88
2022-11-09T00:46:35.763Z,77.95
2022-11-09T00:47:39.337Z,67.90
2022-11-09T00:48:56.751Z,77.45
2022-11-09T00:50:02.963Z,81.95
2022-11-09T00:51:07.721Z,74.22
2022-11-09T00:52:10.604Z,133.82
2022-11-09T00:53:21.619Z,212.18
2022-11-09T00:54:24.485Z,158.70
2022-11-09T00:55:31.614Z,85.43
2022-11-09T00:56:35.845Z,71.60
2022-11-09T00:57:39.524Z,95.65
2022-11-09T00:58:47.096Z,87.05
2022-11-09T00:59:52.314Z,85.35
2022-11-09T01:00:59.713Z,73.28
2022-11-09T01:02:03.597Z,77.57
2022-11-09T01:03:06.466Z,102.80
2022-11-09T01:04:10.193Z,90.57
2022-11-09T01:05:13.168Z,88.55
2022-11-09T01:06:18.346Z,83.30
2022-11-09T01:07:21.171Z,83.55
2022-11-09T01:08:34.257Z,101.78
2022-11-09T01:09:36.914Z,77.88
2022-11-09T01:10:43.683Z,74.47
2022-11-09T01:11:50.235Z,60.92
2022-11-09T01:12:53.028Z,70.28
2022-11-09T01:14:01.152Z,63.13
2022-11-09T01:15:06.763Z,72.97
2022-11-09T01:16:16.366Z,63.15
2022-11-09T01:17:21.924Z,61.80
2022-11-09T01:18:29.033Z,67.88
2022-11-09T01:19:32.805Z,69.82
2022-11-09T01:20:39.385Z,74.15
2022-11-09T01:21:43.055Z,70.32
2022-11-09T01:22:45.797Z,65.57
2022-11-09T01:23:50.674Z,77.90
2022-11-09T01:24:53.534Z,84.15
2022-11-09T01:26:03.312Z,260.45
2022-11-09T01:27:07.105Z,100.57
2022-11-09T01:28:10.634Z,125.35
2022-11-09T01:29:15.844Z,107.13
2022-11-09T01:30:19.308Z,108.65
2022-11-09T01:31:24.398Z,119.07
2022-11-09T01:32:27.475Z,105.95
2022-11-09T01:33:31.246Z,114.43
2022-11-09T01:34:34.212Z,152.95
2022-11-09T01:35:42.974Z,102.95
2022-11-09T01:36:45.665Z,95.13
2022-11-09T01:37:50.367Z,94.63
2022-11-09T01:38:54.084Z,89.40
2022-11-09T01:40:00.277Z,91.18
2022-11-09T01:41:03.485Z,86.55
2022-11-09T01:42:07.685Z,81.60
2022-11-09T01:43:17.170Z,63.55
2022-11-09T01:44:24.283Z,67.40
2022-11-09T01:45:28.843Z,65.70
2022-11-09T01:46:36.785Z,64.60
2022-11-09T01:47:42.123Z,63.42
2022-11-09T01:48:47.847Z,65.20
2022-11-09T01:49:54.545Z,64.68
2022-11-09T01:51:03.593Z,60.65
2022-11-09T01:52:14.663Z,57.63
2022-11-09T01:53:20.599Z,52.97
2022-11-09T01:54:30.837Z,60.85
2022-11-09T01:55:40.795Z,52.47
2022-11-09T01:56:46.535Z,57.15
2022-11-09T01:57:53.506Z,61.63
2022-11-09T01:59:03.075Z,66.68
2022-11-09T02:00:12.793Z,52.55
2022-11-09T02:01:20.153Z,102.07
2022-11-09T02:02:23.436Z,97.15
2022-11-09T02:03:30.039Z,90.90
2022-11-09T02:04:35.456Z,159.90
2022-11-09T02:11:49.743Z,65.53
2022-11-09T02:12:55.092Z,68.10
2022-11-09T02:14:02.604Z,64.80
2022-11-09T02:15:12.184Z,65.68
2022-11-09T02:16:16.881Z,68.75
2022-11-09T02:17:22.173Z,70.43
2022-11-09T02:18:27.006Z,83.70
2022-11-09T02:19:30.643Z,79.20
2022-11-09T02:20:46.664Z,66.93
2022-11-09T02:21:51.282Z,57.70
2022-11-09T02:22:55.304Z,63.05
2022-11-09T02:23:59.305Z,58.13
2022-11-09T02:25:05.656Z,57.88
2022-11-09T02:26:12.733Z,69.07
2022-11-09T02:27:15.446Z,62.85
2022-11-09T02:28:20.787Z,74.53
2022-11-09T02:29:27.171Z,58.33
2022-11-09T02:30:33.488Z,57.65
2022-11-09T02:31:40.322Z,62.85
2022-11-09T02:32:44.162Z,74.22
2022-11-09T02:33:55.647Z,72.18
2022-11-09T02:35:04.603Z,73.93
2022-11-09T02:36:08.884Z,65.25
2022-11-09T02:37:13.805Z,63.38
2022-11-09T02:38:17.082Z,60.05
2022-11-09T02:39:23.313Z,55.47
2022-11-09T02:40:34.093Z,58.83
2022-11-09T02:41:40.702Z,61.08
2022-11-09T02:42:44.594Z,82.40
2022-11-09T02:43:51.002Z,61.25
2022-11-09T02:45:00.121Z,73.75
2022-11-09T02:46:03.014Z,69.55
2022-11-09T02:47:11.633Z,136.57
2022-11-09T02:48:14.604Z,205.05
2022-11-09T02:49:19.642Z,190.98
2022-11-09T02:50:22.350Z,149.65
2022-11-09T02:51:27.802Z,104.07
2022-11-09T02:52:30.543Z,100.07
2022-11-09T02:53:37.571Z,97.63
2022-11-09T02:54:40.253Z,112.97
2022-11-09T02:55:45.487Z,113.20
2022-11-09T02:56:49.262Z,112.38
2022-11-09T02:57:54.764Z,116.28
2022-11-09T02:58:57.971Z,136.38
2022-11-09T03:00:07.376Z,95.97
2022-11-09T03:01:10.646Z,80.57
2022-11-09T03:02:14.513Z,92.10
2022-11-09T03:03:21.086Z,92.40
2022-11-09T03:04:25.594Z,76.15
2022-11-09T03:05:29.624Z,81.25
2022-11-09T03:06:36.409Z,82.72
2022-11-09T03:07:46.757Z,75.88
2022-11-09T03:08:51.092Z,91.60
2022-11-09T03:09:54.666Z,120.40
2022-11-09T03:11:01.269Z,107.70
2022-11-09T03:12:24.791Z,87.53
2022-11-09T03:13:31.604Z,129.60
2022-11-09T03:14:34.463Z,114.57
2022-11-09T03:15:41.103Z,100.10
2022-11-09T03:16:50.020Z,97.32
2022-11-09T03:17:54.344Z,89.68
2022-11-09T03:18:58.357Z,74.78
2022-11-09T03:20:02.693Z,75.28
2022-11-09T03:21:08.384Z,87.45
2022-11-09T03:22:14.532Z,77.15
2022-11-09T03:23:22.211Z,73.03
2022-11-09T03:24:25.068Z,68.60
2022-11-09T03:25:32.672Z,76.50
2022-11-09T03:26:36.202Z,66.95
2022-11-09T03:27:40.313Z,78.32
2022-11-09T03:28:44.065Z,78.00
2022-11-09T03:29:48.372Z,72.75
2022-11-09T03:30:51.283Z,72.30
2022-11-09T03:31:55.125Z,66.88
2022-11-09T03:33:02.288Z,71.60
2022-11-09T03:34:05.271Z,73.63
2022-11-09T03:35:12.201Z,90.65
2022-11-09T03:36:15.564Z,74.03
2022-11-09T03:37:20.911Z,73.47
2022-11-09T03:38:24.913Z,82.30
2022-11-09T03:39:32.354Z,68.53
2022-11-09T03:40:35.431Z,72.28
2022-11-09T03:41:39.546Z,78.15
2022-11-09T03:42:47.957Z,74.05
2022-11-09T03:43:51.923Z,73.32
2022-11-09T03:44:54.639Z,72.97
2022-11-09T03:45:58.404Z,68.38
2022-11-09T03:47:03.746Z,69.90
2022-11-09T03:48:09.794Z,74.97
2022-11-09T03:49:15.916Z,85.80
2022-11-09T03:50:19.953Z,68.18
2022-11-09T03:51:22.642Z,83.47
2022-11-09T03:52:27.860Z,83.80
2022-11-09T03:53:30.494Z,81.88
2022-11-09T03:54:37.045Z,83.63
2022-11-09T03:55:41.420Z,81.60
2022-11-09T03:56:45.317Z,82.60
2022-11-09T03:57:48.148Z,98.57
2022-11-09T03:58:52.054Z,98.32
2022-11-09T03:59:57.263Z,97.50
2022-11-09T04:01:01.123Z,93.15
2022-11-09T04:02:04.076Z,90.68
2022-11-09T04:03:07.865Z,85.57
2022-11-09T04:04:10.689Z,90.85
2022-11-09T04:05:17.366Z,82.70
2022-11-09T04:06:20.153Z,98.80
2022-11-09T04:07:25.696Z,105.50
2022-11-09T04:08:30.903Z,99.40
2022-11-09T04:09:36.761Z,113.82
2022-11-09T04:10:39.453Z,110.03
2022-11-09T04:11:46.324Z,117.05
2022-11-09T04:12:51.173Z,110.28
2022-11-09T04:13:54.976Z,106.43
2022-11-09T04:14:57.766Z,118.53
2022-11-09T04:16:02.342Z,109.75
2022-11-09T04:17:07.337Z,108.82
2022-11-09T04:18:16.002Z,113.35
2022-11-09T04:19:19.932Z,103.00
2022-11-09T04:20:24.005Z,120.43
2022-11-09T04:21:27.766Z,214.20
2022-11-09T04:22:30.467Z,138.07
2022-11-09T04:23:36.386Z,107.38
2022-11-09T04:24:39.995Z,124.15
2022-11-09T04:25:44.024Z,119.32
2022-11-09T04:26:54.052Z,95.90
2022-11-09T04:27:58.157Z,98.00
2022-11-09T04:29:01.863Z,99.70
2022-11-09T04:30:05.433Z,102.38
2022-11-09T04:31:09.232Z,114.22
2022-11-09T04:32:11.935Z,85.15
2022-11-09T04:33:15.775Z,102.35
2022-11-09T04:34:18.815Z,96.18
2022-11-09T04:35:22.815Z,105.97
2022-11-09T04:36:25.594Z,89.20
2022-11-09T04:37:29.272Z,85.63
2022-11-09T04:38:31.934Z,89.57
2022-11-09T04:39:37.513Z,78.65
2022-11-09T04:40:43.736Z,78.75
2022-11-09T04:41:50.302Z,73.53
2022-11-09T04:42:53.054Z,79.45
2022-11-09T04:43:59.193Z,79.10
2022-11-09T04:45:01.920Z,88.88
2022-11-09T04:46:06.066Z,100.50
2022-11-09T04:47:08.764Z,95.32
2022-11-09T04:48:15.740Z,87.00
2022-11-09T04:49:18.475Z,84.85
2022-11-09T04:50:22.202Z,84.80
2022-11-09T04:51:29.587Z,72.13
2022-11-09T04:52:32.401Z,78.00
2022-11-09T04:53:36.985Z,81.82
2022-11-09T04:54:41.085Z,75.35
2022-11-09T04:55:45.686Z,85.32
2022-11-09T04:56:48.846Z,84.75
2022-11-09T04:57:54.404Z,96.45
2022-11-09T04:58:57.147Z,111.50
2022-11-09T05:00:00.915Z,148.65
2022-11-09T05:01:04.593Z,215.70
2022-11-09T05:02:08.332Z,122.78
2022-11-09T05:03:11.054Z,88.82
2022-11-09T05:04:15.115Z,84.25
2022-11-09T05:05:17.924Z,99.93
2022-11-09T05:06:35.461Z,120.32
2022-11-09T05:07:38.210Z,116.97
2022-11-09T05:08:42.206Z,122.13
2022-11-09T05:09:46.392Z,108.10
2022-11-09T05:10:53.140Z,121.45
2022-11-09T05:11:55.814Z,116.22
2022-11-09T05:13:02.110Z,117.03
2022-11-09T05:14:05.699Z,114.93
2022-11-09T05:15:10.145Z,103.18
2022-11-09T05:16:12.969Z,99.13
2022-11-09T05:17:16.802Z,104.97
2022-11-09T05:18:23.290Z,108.35
2022-11-09T05:19:25.972Z,96.32
2022-11-09T05:20:31.726Z,106.90
2022-11-09T05:21:34.534Z,102.57
2022-11-09T05:23:01.727Z,123.30
2022-11-09T05:24:06.023Z,91.78
2022-11-09T05:25:13.494Z,88.57
2022-11-09T05:26:19.731Z,85.50
2022-11-09T05:27:25.065Z,86.63
2022-11-09T05:28:27.744Z,76.55
2022-11-09T05:29:31.432Z,91.22
2022-11-09T05:30:34.102Z,89.20
2022-11-09T05:31:40.313Z,82.70
2022-11-09T05:32:43.041Z,90.18
2022-11-09T05:33:50.452Z,81.43
2022-11-09T05:34:53.146Z,100.20
2022-11-09T05:35:57.141Z,112.55
2022-11-09T05:37:03.452Z,93.00
2022-11-09T05:38:08.376Z,97.97
2022-11-09T05:39:12.433Z,89.03
2022-11-09T05:40:22.743Z,96.97
2022-11-09T05:41:26.865Z,90.85
2022-11-09T05:42:31.487Z,81.32
2022-11-09T05:43:35.296Z,82.43
2022-11-09T05:44:37.991Z,70.45
2022-11-09T05:45:43.460Z,79.13
2022-11-09T05:46:48.512Z,75.15
2022-11-09T05:47:52.233Z,85.72
2022-11-09T05:48:56.944Z,77.85
2022-11-09T05:49:59.665Z,74.50
2022-11-09T05:51:03.786Z,73.47
2022-11-09T05:52:06.632Z,75.63
2022-11-09T05:53:13.491Z,74.00
2022-11-09T05:54:19.254Z,71.03
2022-11-09T05:55:23.343Z,70.15
2022-11-09T05:56:27.163Z,62.50
2022-11-09T05:57:30.105Z,78.47
2022-11-09T05:58:36.576Z,95.65
2022-11-09T05:59:39.273Z,89.65
2022-11-09T06:00:43.046Z,113.10
2022-11-09T06:01:45.761Z,111.20
2022-11-09T06:02:49.485Z,97.95
2022-11-09T06:03:56.960Z,110.60
2022-11-09T06:05:00.723Z,108.22
2022-11-09T06:06:08.644Z,112.75
2022-11-09T06:07:13.359Z,104.65
2022-11-09T06:08:17.378Z,122.43
2022-11-09T06:09:20.065Z,109.47
2022-11-09T06:10:25.258Z,110.88
2022-11-09T06:11:29.943Z,133.57
2022-11-09T06:12:32.696Z,96.32
2022-11-09T06:13:39.144Z,121.20
2022-11-09T06:14:44.604Z,142.60
2022-11-09T06:15:56.235Z,97.05
2022-11-09T06:17:01.836Z,100.57
2022-11-09T06:18:05.824Z,115.25
2022-11-09T06:19:11.527Z,133.05
2022-11-09T06:20:16.635Z,117.32
2022-11-09T06:21:20.392Z,137.15
2022-11-09T06:22:23.244Z,118.45
2022-11-09T06:23:27.856Z,109.40
2022-11-09T06:24:30.523Z,113.43
2022-11-09T06:25:35.703Z,118.10
2022-11-09T06:26:38.506Z,131.25
2022-11-09T06:27:42.222Z,112.03
2022-11-09T06:28:46.359Z,97.38
2022-11-09T06:29:49.236Z,99.88
2022-11-09T06:30:53.228Z,102.82
2022-11-09T06:31:57.235Z,114.90
2022-11-09T06:33:02.433Z,125.47
2022-11-09T06:34:06.385Z,113.53
2022-11-09T06:35:09.715Z,107.93
2022-11-09T06:36:13.984Z,99.25
2022-11-09T06:37:18.005Z,97.40
2022-11-09T06:38:21.755Z,87.95
2022-11-09T06:39:24.474Z,90.35
2022-11-09T06:40:28.764Z,102.43
2022-11-09T06:41:33.426Z,87.47
2022-11-09T06:42:37.212Z,98.45
2022-11-09T06:43:40.996Z,86.10
2022-11-09T06:44:43.782Z,89.68
2022-11-09T06:45:47.607Z,81.18
2022-11-09T06:46:50.337Z,85.80
2022-11-09T06:47:56.991Z,83.72
2022-11-09T06:49:00.957Z,86.18
2022-11-09T06:50:03.841Z,79.55
2022-11-09T06:51:08.675Z,84.43
2022-11-09T06:52:12.445Z,83.97
2022-11-09T06:53:18.229Z,72.43
2022-11-09T06:54:21.157Z,73.38
2022-11-09T06:55:24.965Z,73.32
2022-11-09T06:56:27.967Z,71.38
2022-11-09T06:57:33.333Z,58.15
2022-11-09T06:58:37.774Z,64.55
2022-11-09T06:59:40.504Z,68.80
2022-11-09T07:00:45.271Z,62.28
2022-11-09T07:01:49.211Z,66.82
2022-11-09T07:02:53.612Z,51.33
2022-11-09T07:03:57.488Z,56.05
2022-11-09T07:05:00.322Z,57.55
2022-11-09T07:06:07.182Z,61.13
2022-11-09T07:07:10.083Z,66.32
2022-11-09T07:08:14.779Z,61.45
2022-11-09T07:09:18.514Z,59.10
2022-11-09T07:10:21.203Z,74.75
2022-11-09T07:11:25.037Z,57.85
2022-11-09T07:12:27.821Z,56.65
2022-11-09T07:13:33.200Z,53.92
2022-11-09T07:14:37.043Z,58.08
2022-11-09T07:15:40.144Z,53.33
2022-11-09T07:16:44.003Z,49.85
2022-11-09T07:17:47.894Z,94.93
2022-11-09T07:18:50.590Z,49.40
2022-11-09T07:19:54.351Z,51.85
2022-11-09T07:20:56.993Z,58.78
2022-11-09T07:22:01.005Z,58.20
2022-11-09T07:23:03.974Z,57.40
2022-11-09T07:24:08.503Z,70.10
2022-11-09T07:25:12.242Z,65.13
2022-11-09T07:26:16.133Z,60.90
2022-11-09T07:27:21.389Z,64.10
2022-11-09T07:28:29.325Z,65.15
2022-11-09T07:29:33.560Z,64.60
2022-11-09T07:30:38.097Z,74.72
2022-11-09T07:31:42.092Z,76.15
2022-11-09T07:34:08.943Z,60.88
2022-11-09T07:35:11.873Z,63.03
2022-11-09T07:36:20.854Z,71.53
2022-11-09T07:37:24.316Z,58.15
2022-11-09T07:38:28.676Z,68.15
2022-11-09T07:39:32.002Z,65.35
2022-11-09T07:40:36.243Z,61.83
2022-11-09T07:41:40.032Z,63.55
2022-11-09T07:42:42.771Z,67.03
2022-11-09T07:43:46.716Z,71.35
2022-11-09T07:44:50.965Z,87.10
2022-11-09T07:45:54.803Z,64.50
2022-11-09T07:46:57.651Z,61.28
2022-11-09T07:48:03.022Z,61.00
2022-11-09T07:49:06.929Z,56.58
2022-11-09T07:50:10.527Z,65.18
2022-11-09T07:51:14.403Z,59.63
2022-11-09T07:52:17.263Z,55.97
2022-11-09T07:53:21.757Z,55.55
2022-11-09T07:54:26.116Z,53.40
2022-11-09T07:55:29.461Z,52.85
2022-11-09T07:56:33.244Z,57.03
2022-11-09T07:57:35.907Z,58.85
2022-11-09T07:58:39.601Z,56.80
2022-11-09T07:59:43.455Z,58.90
2022-11-09T08:00:47.530Z,52.67
2022-11-09T08:01:51.359Z,54.33
2022-11-09T08:02:54.479Z,56.10
2022-11-09T08:03:58.353Z,53.35
2022-11-09T08:05:02.252Z,56.67
2022-11-09T08:06:06.314Z,63.83
2022-11-09T08:07:10.110Z,52.97
2022-11-09T08:08:15.845Z,53.63
2022-11-09T08:09:20.182Z,54.83
2022-11-09T08:10:23.141Z,49.83
2022-11-09T08:11:26.934Z,52.15
2022-11-09T08:12:35.766Z,59.53
2022-11-09T08:13:40.842Z,58.40
2022-11-09T08:14:44.572Z,54.47
2022-11-09T08:15:49.828Z,48.65
2022-11-09T08:16:52.763Z,51.97
2022-11-09T08:18:00.793Z,48.53
2022-11-09T08:19:03.920Z,55.40
2022-11-09T08:20:08.621Z,49.95
2022-11-09T08:21:12.684Z,47.13
2022-11-09T08:22:15.606Z,50.85
2022-11-09T08:23:21.171Z,52.67
2022-11-09T08:24:25.797Z,45.17
2022-11-09T08:25:28.762Z,42.60
2022-11-09T08:26:32.469Z,44.63
2022-11-09T08:27:40.291Z,44.63
2022-11-09T08:28:43.983Z,46.30
2022-11-09T08:29:46.855Z,41.17
2022-11-09T08:30:58.812Z,41.25
2022-11-09T08:32:02.553Z,37.65
2022-11-09T08:33:07.211Z,39.83
2022-11-09T08:34:12.700Z,44.03
2022-11-09T08:35:18.222Z,42.58
2022-11-09T08:36:22.284Z,42.92
2022-11-09T08:37:25.073Z,41.60
2022-11-09T08:38:28.997Z,41.60
2022-11-09T08:39:32.785Z,40.40
2022-11-09T08:40:36.608Z,39.00
2022-11-09T08:41:40.353Z,39.00
2022-11-09T08:42:43.263Z,38.45
2022-11-09T08:43:47.165Z,39.55
2022-11-09T08:44:49.816Z,36.47
2022-11-09T08:45:53.940Z,37.03
2022-11-09T08:46:59.120Z,37.42
2022-11-09T08:48:02.410Z,44.17
2022-11-09T08:49:06.738Z,35.47
2022-11-09T08:50:10.912Z,37.90
2022-11-09T08:51:14.759Z,35.67
2022-11-09T08:52:17.708Z,33.45
2022-11-09T08:53:21.509Z,30.98
2022-11-09T08:54:25.461Z,31.30
2022-11-09T08:55:29.375Z,31.73
2022-11-09T08:56:33.352Z,31.65
2022-11-09T08:57:37.143Z,32.03
2022-11-09T08:58:41.125Z,30.73
2022-11-09T08:59:45.181Z,32.22
2022-11-09T09:00:48.932Z,32.75
2022-11-09T09:01:52.793Z,30.15
2022-11-09T09:02:58.343Z,28.25
2022-11-09T09:04:01.423Z,26.13
2022-11-09T09:05:05.951Z,29.38
2022-11-09T09:06:10.084Z,27.83
2022-11-09T09:07:14.436Z,28.77
2022-11-09T09:08:19.218Z,30.30
2022-11-09T09:09:23.230Z,29.50
2022-11-09T09:10:27.129Z,26.00
2022-11-09T09:11:31.031Z,31.85
2022-11-09T09:12:33.940Z,28.25
2022-11-09T09:13:42.898Z,25.58
2022-11-09T09:14:47.370Z,27.25
2022-11-09T09:15:51.452Z,27.52
2022-11-09T09:16:54.221Z,26.33
2022-11-09T09:18:01.054Z,28.20
2022-11-09T09:19:04.852Z,30.20
2022-11-09T09:20:08.962Z,31.63
2022-11-09T09:21:13.723Z,28.80
2022-11-09T09:22:16.585Z,26.60
2022-11-09T09:23:20.382Z,27.55
2022-11-09T09:24:23.350Z,29.23
2022-11-09T09:25:27.400Z,31.10
2022-11-09T09:26:31.143Z,29.60
2022-11-09T09:27:35.351Z,27.30
2022-11-09T09:28:39.486Z,27.67
2022-11-09T09:29:43.423Z,26.60
2022-11-09T09:30:47.292Z,25.67
2022-11-09T09:31:51.184Z,29.98
2022-11-09T09:33:01.464Z,30.50
2022-11-09T09:34:05.360Z,30.55
2022-11-09T09:35:09.874Z,28.35
2022-11-09T09:36:18.113Z,28.80
2022-11-09T09:37:21.945Z,27.83
2022-11-09T09:38:25.870Z,28.92
2022-11-09T09:39:30.110Z,27.95
2022-11-09T09:40:38.427Z,26.58
2022-11-09T09:41:46.125Z,26.05
2022-11-09T09:42:50.223Z,25.88
2022-11-09T09:43:55.970Z,26.75
2022-11-09T09:45:02.571Z,26.05
2022-11-09T09:46:09.342Z,28.45
2022-11-09T09:47:16.360Z,25.30
2022-11-09T09:48:28.260Z,24.70
2022-11-09T09:49:33.887Z,25.83
2022-11-09T09:50:42.067Z,27.95
2022-11-09T09:51:50.843Z,26.15
2022-11-09T09:53:23.343Z,27.52
2022-11-09T09:54:25.532Z,30.27
2022-11-09T09:55:36.200Z,25.63
2022-11-09T09:56:44.351Z,26.95
2022-11-09T09:57:51.183Z,28.55
2022-11-09T09:58:59.482Z,26.63
2022-11-09T10:00:05.401Z,28.50
2022-11-09T10:01:17.092Z,28.00
2022-11-09T10:02:24.553Z,31.88
2022-11-09T10:03:29.852Z,26.52
2022-11-09T10:04:37.144Z,27.33
2022-11-09T10:05:49.652Z,25.52
2022-11-09T10:07:03.477Z,26.52
2022-11-09T10:08:10.981Z,26.77
2022-11-09T10:09:23.860Z,29.95
2022-11-09T10:10:38.944Z,25.08
2022-11-09T10:11:49.491Z,27.38
2022-11-09T10:13:07.456Z,28.05
2022-11-09T10:14:35.930Z,26.02
2022-11-09T10:15:46.394Z,25.20
2022-11-09T10:16:56.992Z,27.90
2022-11-09T10:18:14.443Z,27.13
2022-11-09T10:19:29.871Z,22.92
2022-11-09T10:20:42.522Z,25.90
2022-11-09T10:21:52.231Z,27.15
2022-11-09T10:23:08.682Z,25.65
2022-11-09T10:24:26.344Z,25.83
2022-11-09T10:26:02.522Z,24.48
2022-11-09T10:26:56.971Z,25.08
2022-11-09T10:28:02.801Z,26.00
2022-11-09T10:29:18.684Z,30.77
2022-11-09T10:30:24.673Z,27.33
2022-11-09T10:31:33.010Z,25.52
2022-11-09T10:32:38.032Z,27.27
2022-11-09T10:33:40.715Z,32.08
2022-11-09T10:34:54.873Z,25.77
2022-11-09T10:36:08.206Z,26.23
2022-11-09T10:37:16.390Z,21.90
2022-11-09T10:38:25.490Z,25.70
2022-11-09T10:39:51.081Z,22.38
2022-11-09T10:41:18.494Z,24.20
2022-11-09T10:42:40.743Z,29.60
2022-11-09T10:44:03.662Z,26.98
2022-11-09T10:45:36.642Z,25.55
2022-11-09T10:47:12.064Z,23.60
2022-11-09T10:48:36.572Z,23.65
2022-11-09T10:50:22.840Z,23.75
2022-11-09T10:51:47.011Z,23.77
2022-11-09T10:53:17.103Z,23.55
2022-11-09T10:54:39.783Z,24.52
2022-11-09T10:56:11.494Z,20.70
2022-11-09T10:57:33.952Z,20.73
2022-11-09T10:58:56.563Z,21.38
2022-11-09T11:00:20.757Z,22.73
2022-11-09T11:01:43.267Z,24.65
2022-11-09T11:03:13.053Z,22.77
2022-11-09T11:04:35.335Z,18.90
2022-11-09T11:06:03.033Z,22.08
2022-11-09T11:07:25.457Z,18.73
2022-11-09T11:08:49.781Z,23.30
2022-11-09T11:10:12.500Z,24.45
2022-11-09T11:11:36.959Z,20.35
2022-11-09T11:13:22.194Z,24.77
2022-11-09T11:14:46.302Z,18.52
2022-11-09T11:16:17.397Z,18.23
2022-11-09T11:17:41.389Z,16.55
2022-11-09T11:19:04.271Z,19.85
2022-11-09T11:20:32.020Z,17.63
2022-11-09T11:22:23.033Z,23.65
2022-11-09T11:23:45.942Z,21.95
2022-11-09T11:25:19.989Z,18.40
2022-11-09T11:26:47.842Z,35.47
2022-11-09T11:28:19.050Z,24.33
2022-11-09T11:29:49.072Z,17.77
2022-11-09T11:31:13.440Z,17.67
2022-11-09T11:32:35.985Z,18.05
2022-11-09T11:33:58.893Z,17.60
2022-11-09T11:35:27.400Z,14.23
2022-11-09T11:36:59.023Z,16.08
2022-11-09T11:38:29.304Z,17.70
2022-11-09T11:40:01.453Z,13.50
2022-11-09T11:41:42.809Z,14.60
2022-11-09T11:43:23.352Z,14.25
2022-11-09T11:45:25.522Z,15.10
2022-11-09T11:46:47.904Z,13.02
2022-11-09T11:48:39.570Z,15.15
2022-11-09T11:50:22.777Z,15.60
2022-11-09T11:51:51.663Z,16.75
2022-11-09T11:53:21.567Z,13.93
2022-11-09T11:54:55.572Z,15.93
2022-11-09T11:56:23.133Z,15.55
2022-11-09T11:57:52.289Z,22.50
2022-11-09T11:59:40.712Z,15.35
2022-11-09T12:01:12.621Z,12.30
2022-11-09T12:02:56.127Z,13.77
2022-11-09T12:04:34.135Z,14.75
2022-11-09T12:06:08.344Z,12.20
2022-11-09T12:07:36.352Z,14.13
2022-11-09T12:09:24.659Z,14.13
2022-11-09T12:10:55.854Z,10.63
2022-11-09T12:12:27.343Z,12.95
2022-11-09T12:14:02.418Z,12.77
2022-11-09T12:15:39.792Z,11.93
2022-11-09T12:17:09.153Z,10.73
2022-11-09T12:18:43.242Z,10.68
2022-11-09T12:20:18.659Z,12.27
2022-11-09T12:21:45.865Z,10.40
2022-11-09T12:23:25.481Z,10.27
2022-11-09T12:24:53.642Z,13.02
2022-11-09T12:26:26.451Z,13.45
2022-11-09T12:28:01.054Z,11.30
2022-11-09T12:29:27.774Z,11.80
2022-11-09T12:31:01.042Z,10.93
2022-11-09T12:32:31.783Z,11.48
2022-11-09T12:33:59.905Z,17.13
2022-11-09T12:35:27.077Z,15.07
2022-11-09T12:36:54.429Z,11.63
2022-11-09T12:38:19.909Z,12.35
2022-11-09T12:39:45.091Z,14.30
2022-11-09T12:41:11.730Z,12.30
2022-11-09T12:42:38.894Z,13.30
2022-11-09T12:44:05.232Z,15.85
2022-11-09T12:45:31.122Z,11.18
2022-11-09T12:46:59.125Z,16.55
2022-11-09T12:48:24.777Z,12.65
2022-11-09T12:49:48.179Z,11.88
2022-11-09T12:51:11.295Z,13.30
2022-11-09T12:52:33.742Z,10.45
2022-11-09T12:53:56.986Z,10.52
2022-11-09T12:55:21.580Z,10.85
2022-11-09T12:56:47.640Z,12.10
2022-11-09T12:58:22.646Z,10.38
2022-11-09T12:59:50.400Z,9.98
2022-11-09T13:01:14.376Z,10.80
2022-11-09T13:02:43.744Z,13.45
2022-11-09T13:04:07.723Z,13.48
2022-11-09T13:05:32.215Z,10.63
2022-11-09T13:07:19.794Z,16.27
2022-11-09T13:08:42.449Z,11.82
2022-11-09T13:10:05.433Z,12.23
2022-11-09T13:11:36.374Z,14.48
2022-11-09T13:13:07.149Z,11.07
2022-11-09T13:14:37.073Z,11.40
2022-11-09T13:16:12.541Z,13.75
2022-11-09T13:17:58.193Z,12.75
2022-11-09T13:19:52.716Z,15.15
2022-11-09T13:21:40.763Z,16.88
2022-11-09T13:23:05.032Z,12.60
2022-11-09T13:24:55.426Z,13.73
2022-11-09T13:26:25.744Z,11.48
2022-11-09T13:27:49.992Z,12.75
2022-11-09T13:29:24.322Z,13.98
2022-11-09T13:30:48.333Z,13.38
2022-11-09T13:32:33.589Z,13.38
2022-11-09T13:34:37.196Z,12.32
2022-11-09T13:36:21.755Z,12.77
2022-11-09T13:38:08.743Z,11.18
2022-11-09T13:39:34.002Z,14.63
2022-11-09T13:40:57.295Z,11.82
2022-11-09T13:42:29.278Z,12.02
2022-11-09T13:44:09.314Z,14.05
2022-11-09T13:45:35.017Z,12.55
2022-11-09T13:46:58.799Z,13.07
2022-11-09T13:48:43.213Z,14.38
2022-11-09T13:50:12.881Z,13.23
2022-11-09T13:51:46.253Z,14.23
2022-11-09T13:53:29.204Z,14.77
2022-11-09T13:54:54.813Z,13.75
2022-11-09T13:56:27.329Z,12.23
2022-11-09T13:57:50.063Z,15.77
2022-11-09T13:59:16.802Z,12.10
2022-11-09T14:00:39.294Z,16.00
2022-11-09T14:02:04.024Z,15.65
2022-11-09T14:03:28.472Z,22.15
2022-11-09T14:04:51.124Z,24.60
2022-11-09T14:06:14.881Z,21.38
2022-11-09T14:07:37.628Z,22.17
2022-11-09T14:09:00.394Z,21.73
2022-11-09T14:10:29.228Z,12.75
2022-11-09T14:12:01.513Z,18.77
2022-11-09T14:13:43.628Z,15.90
2022-11-09T14:15:15.364Z,18.90
2022-11-09T14:16:44.506Z,20.80
2022-11-09T14:18:19.716Z,15.77
2022-11-09T14:19:50.853Z,18.05
2022-11-09T14:21:36.759Z,18.08
2022-11-09T14:22:58.945Z,15.05
2022-11-09T14:24:22.962Z,18.88
2022-11-09T14:25:45.796Z,20.58
2022-11-09T14:27:15.689Z,19.25
2022-11-09T14:28:38.115Z,21.38
2022-11-09T14:30:02.856Z,42.13
2022-11-09T14:31:26.717Z,38.45
2022-11-09T14:32:50.627Z,35.00
2022-11-09T14:34:16.983Z,41.83
2022-11-09T14:35:40.793Z,39.85
2022-11-09T14:37:05.923Z,39.42
2022-11-09T14:38:30.270Z,36.85
2022-11-09T14:39:54.615Z,33.90
2022-11-09T14:41:23.111Z,34.58
2022-11-09T14:42:51.273Z,27.08
2022-11-09T14:44:26.044Z,32.38
2022-11-09T14:45:50.864Z,32.58
2022-11-09T14:47:17.060Z,32.20
2022-11-09T14:48:43.292Z,31.35
2022-11-09T14:50:12.888Z,33.97
2022-11-09T14:51:38.126Z,25.55
2022-11-09T14:53:00.773Z,26.17
2022-11-09T14:54:26.896Z,30.55
2022-11-09T14:55:50.674Z,35.45
2022-11-09T14:57:16.185Z,25.60
2022-11-09T14:58:41.236Z,31.38
2022-11-09T15:00:03.933Z,39.58
2022-11-09T15:01:27.406Z,37.53
2022-11-09T15:02:49.675Z,40.08
2022-11-09T15:04:14.924Z,31.33
2022-11-09T15:05:41.304Z,29.77
2022-11-09T15:07:05.356Z,31.08
2022-11-09T15:08:27.756Z,27.05
2022-11-09T15:09:51.553Z,28.80
2022-11-09T15:11:14.142Z,28.15
2022-11-09T15:12:42.519Z,24.63
2022-11-09T15:14:15.368Z,29.08
2022-11-09T15:15:38.975Z,25.48
2022-11-09T15:17:06.891Z,22.92
2022-11-09T15:18:33.905Z,27.10
2022-11-09T15:19:58.215Z,24.75
2022-11-09T15:21:35.035Z,21.85